sensor_id;sensor_type;location;lat;lon;timestamp;P1;durP1;ratioP1;P2;durP2;ratioP2
9106;SDS011;4589;48.690;8.952;2023-08-24T00:02:02;9.33;;;7.63;;
9106;SDS011;4589;48.690;8.952;2023-08-24T00:04:28;9.93;;;8.90;;
9106;SDS011;4589;48.690;8.952;2023-08-24T00:06:54;12.67;;;8.53;;
9106;SDS011;4589;48.690;8.952;2023-08-24T00:09:19;15.90;;;9.67;;
9106;SDS011;4589;48.690;8.952;2023-08-24T00:11:45;11.53;;;9.97;;
9106;SDS011;4589;48.690;8.952;2023-08-24T00:14:11;9.60;;;8.80;;
9106;SDS011;4589;48.690;8.952;2023-08-24T00:16:37;11.63;;;10.53;;
9106;SDS011;4589;48.690;8.952;2023-08-24T00:19:03;11.00;;;8.83;;
9106;SDS011;4589;48.690;8.952;2023-08-24T00:21:29;10.97;;;9.90;;
9106;SDS011;4589;48.690;8.952;2023-08-24T00:23:55;10.73;;;9.63;;
9106;SDS011;4589;48.690;8.952;2023-08-24T00:26:21;10.47;;;9.43;;
9106;SDS011;4589;48.690;8.952;2023-08-24T00:28:48;13.87;;;9.83;;
9106;SDS011;4589;48.690;8.952;2023-08-24T00:31:17;10.50;;;9.40;;
9106;SDS011;4589;48.690;8.952;2023-08-24T00:33:43;10.90;;;9.43;;
9106;SDS011;4589;48.690;8.952;2023-08-24T00:36:08;9.27;;;8.37;;
9106;SDS011;4589;48.690;8.952;2023-08-24T00:38:34;9.30;;;8.60;;
9106;SDS011;4589;48.690;8.952;2023-08-24T00:41:00;8.83;;;7.93;;
9106;SDS011;4589;48.690;8.952;2023-08-24T00:43:26;10.97;;;9.20;;
9106;SDS011;4589;48.690;8.952;2023-08-24T00:45:53;11.27;;;10.10;;
9106;SDS011;4589;48.690;8.952;2023-08-24T00:48:21;9.40;;;8.37;;
9106;SDS011;4589;48.690;8.952;2023-08-24T00:50:51;10.60;;;9.60;;
9106;SDS011;4589;48.690;8.952;2023-08-24T00:53:18;9.70;;;8.87;;
9106;SDS011;4589;48.690;8.952;2023-08-24T00:55:44;10.70;;;9.70;;
9106;SDS011;4589;48.690;8.952;2023-08-24T00:58:11;12.07;;;10.40;;
9106;SDS011;4589;48.690;8.952;2023-08-24T01:00:38;11.63;;;10.40;;
9106;SDS011;4589;48.690;8.952;2023-08-24T01:03:03;13.30;;;10.07;;
9106;SDS011;4589;48.690;8.952;2023-08-24T01:05:29;16.50;;;9.70;;
9106;SDS011;4589;48.690;8.952;2023-08-24T01:07:55;10.63;;;9.60;;
9106;SDS011;4589;48.690;8.952;2023-08-24T01:10:21;11.53;;;10.43;;
9106;SDS011;4589;48.690;8.952;2023-08-24T01:16:16;11.57;;;10.40;;
9106;SDS011;4589;48.690;8.952;2023-08-24T01:18:44;12.63;;;10.70;;
9106;SDS011;4589;48.690;8.952;2023-08-24T01:21:11;12.27;;;10.83;;
9106;SDS011;4589;48.690;8.952;2023-08-24T01:23:48;11.83;;;10.67;;
9106;SDS011;4589;48.690;8.952;2023-08-24T01:26:35;11.23;;;10.13;;
9106;SDS011;4589;48.690;8.952;2023-08-24T01:29:01;12.57;;;11.27;;
9106;SDS011;4589;48.690;8.952;2023-08-24T01:31:29;13.17;;;10.67;;
9106;SDS011;4589;48.690;8.952;2023-08-24T01:33:55;11.60;;;10.30;;
9106;SDS011;4589;48.690;8.952;2023-08-24T01:36:20;12.03;;;10.73;;
9106;SDS011;4589;48.690;8.952;2023-08-24T01:38:47;12.40;;;11.30;;
9106;SDS011;4589;48.690;8.952;2023-08-24T01:43:51;12.27;;;9.83;;
9106;SDS011;4589;48.690;8.952;2023-08-24T01:46:19;11.90;;;10.73;;
9106;SDS011;4589;48.690;8.952;2023-08-24T01:48:46;12.60;;;10.60;;
9106;SDS011;4589;48.690;8.952;2023-08-24T01:51:13;15.40;;;10.80;;
9106;SDS011;4589;48.690;8.952;2023-08-24T01:53:40;13.53;;;11.90;;
9106;SDS011;4589;48.690;8.952;2023-08-24T01:56:09;11.73;;;10.63;;
9106;SDS011;4589;48.690;8.952;2023-08-24T01:58:36;10.37;;;9.43;;
9106;SDS011;4589;48.690;8.952;2023-08-24T02:01:01;11.50;;;10.10;;
9106;SDS011;4589;48.690;8.952;2023-08-24T02:03:27;11.93;;;10.83;;
9106;SDS011;4589;48.690;8.952;2023-08-24T02:05:53;12.80;;;11.73;;
9106;SDS011;4589;48.690;8.952;2023-08-24T02:08:19;13.17;;;11.77;;
9106;SDS011;4589;48.690;8.952;2023-08-24T02:10:45;11.60;;;10.50;;
9106;SDS011;4589;48.690;8.952;2023-08-24T02:13:10;12.23;;;11.13;;
9106;SDS011;4589;48.690;8.952;2023-08-24T02:15:37;10.73;;;9.77;;
9106;SDS011;4589;48.690;8.952;2023-08-24T02:18:04;11.53;;;10.43;;
9106;SDS011;4589;48.690;8.952;2023-08-24T02:20:30;13.97;;;12.57;;
9106;SDS011;4589;48.690;8.952;2023-08-24T02:23:00;11.53;;;10.30;;
9106;SDS011;4589;48.690;8.952;2023-08-24T02:25:26;15.00;;;11.37;;
9106;SDS011;4589;48.690;8.952;2023-08-24T02:27:52;11.13;;;9.93;;
9106;SDS011;4589;48.690;8.952;2023-08-24T02:30:18;12.60;;;11.40;;
9106;SDS011;4589;48.690;8.952;2023-08-24T02:32:43;12.50;;;11.20;;
9106;SDS011;4589;48.690;8.952;2023-08-24T02:35:09;12.10;;;10.80;;
9106;SDS011;4589;48.690;8.952;2023-08-24T02:37:35;12.50;;;11.40;;
9106;SDS011;4589;48.690;8.952;2023-08-24T02:40:01;16.37;;;11.00;;
9106;SDS011;4589;48.690;8.952;2023-08-24T02:42:30;11.63;;;10.53;;
9106;SDS011;4589;48.690;8.952;2023-08-24T02:44:56;12.90;;;10.90;;
9106;SDS011;4589;48.690;8.952;2023-08-24T02:47:23;12.10;;;10.97;;
9106;SDS011;4589;48.690;8.952;2023-08-24T02:49:48;10.37;;;9.47;;
9106;SDS011;4589;48.690;8.952;2023-08-24T02:52:14;12.83;;;10.90;;
9106;SDS011;4589;48.690;8.952;2023-08-24T02:54:40;15.33;;;10.63;;
9106;SDS011;4589;48.690;8.952;2023-08-24T02:57:06;12.27;;;10.47;;
9106;SDS011;4589;48.690;8.952;2023-08-24T02:59:31;10.90;;;9.87;;
9106;SDS011;4589;48.690;8.952;2023-08-24T03:01:57;10.93;;;9.60;;
9106;SDS011;4589;48.690;8.952;2023-08-24T03:04:23;11.53;;;10.43;;
9106;SDS011;4589;48.690;8.952;2023-08-24T03:06:49;10.97;;;10.07;;
9106;SDS011;4589;48.690;8.952;2023-08-24T03:09:15;12.50;;;11.37;;
9106;SDS011;4589;48.690;8.952;2023-08-24T03:11:41;12.20;;;11.00;;
9106;SDS011;4589;48.690;8.952;2023-08-24T03:14:07;13.30;;;11.13;;
9106;SDS011;4589;48.690;8.952;2023-08-24T03:16:33;12.73;;;10.13;;
9106;SDS011;4589;48.690;8.952;2023-08-24T03:18:59;14.00;;;10.40;;
9106;SDS011;4589;48.690;8.952;2023-08-24T03:21:24;11.77;;;10.57;;
9106;SDS011;4589;48.690;8.952;2023-08-24T03:23:50;12.10;;;11.00;;
9106;SDS011;4589;48.690;8.952;2023-08-24T03:26:15;11.73;;;10.63;;
9106;SDS011;4589;48.690;8.952;2023-08-24T03:28:42;12.00;;;10.80;;
9106;SDS011;4589;48.690;8.952;2023-08-24T03:31:08;14.47;;;10.10;;
9106;SDS011;4589;48.690;8.952;2023-08-24T03:33:34;11.83;;;10.83;;
9106;SDS011;4589;48.690;8.952;2023-08-24T03:36:00;12.73;;;11.43;;
9106;SDS011;4589;48.690;8.952;2023-08-24T03:38:27;13.20;;;10.90;;
9106;SDS011;4589;48.690;8.952;2023-08-24T03:40:59;11.53;;;10.40;;
9106;SDS011;4589;48.690;8.952;2023-08-24T03:43:25;11.27;;;10.27;;
9106;SDS011;4589;48.690;8.952;2023-08-24T03:45:51;10.43;;;9.53;;
9106;SDS011;4589;48.690;8.952;2023-08-24T03:48:16;10.67;;;9.73;;
9106;SDS011;4589;48.690;8.952;2023-08-24T03:50:43;10.97;;;10.00;;
9106;SDS011;4589;48.690;8.952;2023-08-24T03:53:08;11.40;;;9.97;;
9106;SDS011;4589;48.690;8.952;2023-08-24T03:55:34;10.07;;;9.07;;
9106;SDS011;4589;48.690;8.952;2023-08-24T03:58:00;11.30;;;10.30;;
9106;SDS011;4589;48.690;8.952;2023-08-24T04:00:25;13.20;;;10.43;;
9106;SDS011;4589;48.690;8.952;2023-08-24T04:02:51;13.20;;;10.90;;
9106;SDS011;4589;48.690;8.952;2023-08-24T04:05:17;12.67;;;11.50;;
9106;SDS011;4589;48.690;8.952;2023-08-24T04:07:43;11.30;;;10.30;;
9106;SDS011;4589;48.690;8.952;2023-08-24T04:10:09;12.30;;;11.10;;
9106;SDS011;4589;48.690;8.952;2023-08-24T04:12:36;11.57;;;10.60;;
9106;SDS011;4589;48.690;8.952;2023-08-24T04:15:02;12.30;;;11.13;;
9106;SDS011;4589;48.690;8.952;2023-08-24T04:17:28;10.60;;;9.60;;
9106;SDS011;4589;48.690;8.952;2023-08-24T04:19:54;12.67;;;11.23;;
9106;SDS011;4589;48.690;8.952;2023-08-24T04:22:20;12.70;;;11.40;;
9106;SDS011;4589;48.690;8.952;2023-08-24T04:24:46;13.97;;;10.87;;
9106;SDS011;4589;48.690;8.952;2023-08-24T04:27:11;14.40;;;12.97;;
9106;SDS011;4589;48.690;8.952;2023-08-24T04:29:37;13.17;;;11.87;;
9106;SDS011;4589;48.690;8.952;2023-08-24T04:32:02;11.93;;;10.80;;
9106;SDS011;4589;48.690;8.952;2023-08-24T04:34:29;13.47;;;11.17;;
9106;SDS011;4589;48.690;8.952;2023-08-24T04:36:55;13.20;;;10.53;;
9106;SDS011;4589;48.690;8.952;2023-08-24T04:39:20;13.90;;;10.27;;
9106;SDS011;4589;48.690;8.952;2023-08-24T04:41:46;11.27;;;10.17;;
9106;SDS011;4589;48.690;8.952;2023-08-24T04:44:12;12.30;;;11.10;;
9106;SDS011;4589;48.690;8.952;2023-08-24T04:46:38;14.00;;;12.10;;
9106;SDS011;4589;48.690;8.952;2023-08-24T04:49:03;12.83;;;11.63;;
9106;SDS011;4589;48.690;8.952;2023-08-24T04:51:29;13.43;;;12.13;;
9106;SDS011;4589;48.690;8.952;2023-08-24T04:53:55;12.83;;;11.53;;
9106;SDS011;4589;48.690;8.952;2023-08-24T04:56:21;12.30;;;11.00;;
9106;SDS011;4589;48.690;8.952;2023-08-24T04:58:53;12.30;;;11.00;;
9106;SDS011;4589;48.690;8.952;2023-08-24T05:01:21;10.97;;;9.90;;
9106;SDS011;4589;48.690;8.952;2023-08-24T05:03:47;11.90;;;10.23;;
9106;SDS011;4589;48.690;8.952;2023-08-24T05:06:13;13.40;;;11.93;;
9106;SDS011;4589;48.690;8.952;2023-08-24T05:08:38;11.50;;;10.23;;
9106;SDS011;4589;48.690;8.952;2023-08-24T05:11:14;11.50;;;10.30;;
9106;SDS011;4589;48.690;8.952;2023-08-24T05:13:44;10.20;;;9.30;;
9106;SDS011;4589;48.690;8.952;2023-08-24T05:16:10;13.20;;;11.77;;
9106;SDS011;4589;48.690;8.952;2023-08-24T05:18:36;11.97;;;10.73;;
9106;SDS011;4589;48.690;8.952;2023-08-24T05:21:02;11.43;;;10.23;;
9106;SDS011;4589;48.690;8.952;2023-08-24T05:23:29;11.93;;;10.30;;
9106;SDS011;4589;48.690;8.952;2023-08-24T05:25:56;12.27;;;11.13;;
9106;SDS011;4589;48.690;8.952;2023-08-24T05:28:22;11.03;;;9.93;;
9106;SDS011;4589;48.690;8.952;2023-08-24T05:30:48;15.00;;;11.03;;
9106;SDS011;4589;48.690;8.952;2023-08-24T05:33:13;14.67;;;10.00;;
9106;SDS011;4589;48.690;8.952;2023-08-24T05:35:39;11.37;;;10.20;;
9106;SDS011;4589;48.690;8.952;2023-08-24T05:38:05;15.43;;;11.60;;
9106;SDS011;4589;48.690;8.952;2023-08-24T05:40:33;11.80;;;10.70;;
9106;SDS011;4589;48.690;8.952;2023-08-24T05:42:59;10.50;;;9.50;;
9106;SDS011;4589;48.690;8.952;2023-08-24T05:45:24;11.13;;;10.13;;
9106;SDS011;4589;48.690;8.952;2023-08-24T05:47:50;15.47;;;10.20;;
9106;SDS011;4589;48.690;8.952;2023-08-24T05:50:16;10.90;;;9.90;;
9106;SDS011;4589;48.690;8.952;2023-08-24T05:52:42;11.90;;;9.73;;
9106;SDS011;4589;48.690;8.952;2023-08-24T05:55:08;11.23;;;10.10;;
9106;SDS011;4589;48.690;8.952;2023-08-24T05:57:33;12.13;;;9.50;;
9106;SDS011;4589;48.690;8.952;2023-08-24T05:59:59;12.53;;;10.27;;
9106;SDS011;4589;48.690;8.952;2023-08-24T06:02:24;14.33;;;9.90;;
9106;SDS011;4589;48.690;8.952;2023-08-24T06:04:51;12.10;;;10.43;;
9106;SDS011;4589;48.690;8.952;2023-08-24T06:07:17;12.10;;;9.30;;
9106;SDS011;4589;48.690;8.952;2023-08-24T06:09:43;28.27;;;10.00;;
9106;SDS011;4589;48.690;8.952;2023-08-24T06:12:08;19.00;;;10.30;;
9106;SDS011;4589;48.690;8.952;2023-08-24T06:14:34;26.20;;;10.47;;
9106;SDS011;4589;48.690;8.952;2023-08-24T06:17:00;23.10;;;10.30;;
9106;SDS011;4589;48.690;8.952;2023-08-24T06:19:25;21.53;;;9.97;;
9106;SDS011;4589;48.690;8.952;2023-08-24T06:21:51;14.60;;;10.23;;
9106;SDS011;4589;48.690;8.952;2023-08-24T06:24:17;18.27;;;9.87;;
9106;SDS011;4589;48.690;8.952;2023-08-24T06:26:43;17.23;;;10.03;;
9106;SDS011;4589;48.690;8.952;2023-08-24T06:29:08;18.77;;;8.97;;
9106;SDS011;4589;48.690;8.952;2023-08-24T06:31:34;32.77;;;12.67;;
9106;SDS011;4589;48.690;8.952;2023-08-24T06:34:00;20.90;;;9.63;;
9106;SDS011;4589;48.690;8.952;2023-08-24T06:36:26;19.43;;;9.37;;
9106;SDS011;4589;48.690;8.952;2023-08-24T06:38:53;18.53;;;9.60;;
9106;SDS011;4589;48.690;8.952;2023-08-24T06:41:19;13.23;;;9.77;;
9106;SDS011;4589;48.690;8.952;2023-08-24T06:43:45;19.03;;;9.33;;
9106;SDS011;4589;48.690;8.952;2023-08-24T06:46:10;18.07;;;9.07;;
9106;SDS011;4589;48.690;8.952;2023-08-24T06:48:36;9.07;;;8.00;;
9106;SDS011;4589;48.690;8.952;2023-08-24T06:51:06;12.20;;;8.20;;
9106;SDS011;4589;48.690;8.952;2023-08-24T06:53:33;11.00;;;8.20;;
9106;SDS011;4589;48.690;8.952;2023-08-24T06:55:59;10.13;;;9.03;;
9106;SDS011;4589;48.690;8.952;2023-08-24T06:58:25;9.53;;;7.70;;
9106;SDS011;4589;48.690;8.952;2023-08-24T07:00:51;10.20;;;7.43;;
9106;SDS011;4589;48.690;8.952;2023-08-24T07:03:17;7.83;;;7.10;;
9106;SDS011;4589;48.690;8.952;2023-08-24T07:05:44;9.60;;;7.70;;
9106;SDS011;4589;48.690;8.952;2023-08-24T07:08:10;16.93;;;8.30;;
9106;SDS011;4589;48.690;8.952;2023-08-24T07:10:36;25.20;;;8.37;;
9106;SDS011;4589;48.690;8.952;2023-08-24T07:13:01;14.60;;;8.50;;
9106;SDS011;4589;48.690;8.952;2023-08-24T07:15:27;14.77;;;9.10;;
9106;SDS011;4589;48.690;8.952;2023-08-24T07:17:53;13.50;;;7.50;;
9106;SDS011;4589;48.690;8.952;2023-08-24T07:20:19;8.10;;;7.50;;
9106;SDS011;4589;48.690;8.952;2023-08-24T07:22:45;8.77;;;7.03;;
9106;SDS011;4589;48.690;8.952;2023-08-24T07:25:10;9.87;;;7.60;;
9106;SDS011;4589;48.690;8.952;2023-08-24T07:27:37;9.40;;;5.90;;
9106;SDS011;4589;48.690;8.952;2023-08-24T07:30:03;7.97;;;5.87;;
9106;SDS011;4589;48.690;8.952;2023-08-24T07:32:32;7.30;;;5.23;;
9106;SDS011;4589;48.690;8.952;2023-08-24T07:34:58;9.57;;;5.80;;
9106;SDS011;4589;48.690;8.952;2023-08-24T07:37:24;9.67;;;5.30;;
9106;SDS011;4589;48.690;8.952;2023-08-24T07:39:52;7.50;;;5.20;;
9106;SDS011;4589;48.690;8.952;2023-08-24T07:42:21;7.27;;;5.27;;
9106;SDS011;4589;48.690;8.952;2023-08-24T07:44:47;14.63;;;4.93;;
9106;SDS011;4589;48.690;8.952;2023-08-24T07:47:13;4.67;;;4.20;;
9106;SDS011;4589;48.690;8.952;2023-08-24T07:49:38;5.23;;;4.73;;
9106;SDS011;4589;48.690;8.952;2023-08-24T07:52:08;9.53;;;4.70;;
9106;SDS011;4589;48.690;8.952;2023-08-24T07:54:34;5.43;;;4.83;;
9106;SDS011;4589;48.690;8.952;2023-08-24T07:57:00;10.20;;;5.30;;
9106;SDS011;4589;48.690;8.952;2023-08-24T07:59:26;6.10;;;4.13;;
9106;SDS011;4589;48.690;8.952;2023-08-24T08:01:52;4.63;;;4.23;;
9106;SDS011;4589;48.690;8.952;2023-08-24T08:04:17;7.53;;;4.20;;
9106;SDS011;4589;48.690;8.952;2023-08-24T08:06:43;5.77;;;4.47;;
9106;SDS011;4589;48.690;8.952;2023-08-24T08:09:08;7.17;;;4.80;;
9106;SDS011;4589;48.690;8.952;2023-08-24T08:11:34;5.20;;;4.60;;
9106;SDS011;4589;48.690;8.952;2023-08-24T08:14:00;11.03;;;4.33;;
9106;SDS011;4589;48.690;8.952;2023-08-24T08:16:25;7.93;;;4.90;;
9106;SDS011;4589;48.690;8.952;2023-08-24T08:18:51;10.17;;;5.47;;
9106;SDS011;4589;48.690;8.952;2023-08-24T08:21:16;8.60;;;5.93;;
9106;SDS011;4589;48.690;8.952;2023-08-24T08:23:43;9.10;;;5.03;;
9106;SDS011;4589;48.690;8.952;2023-08-24T08:26:10;8.20;;;5.27;;
9106;SDS011;4589;48.690;8.952;2023-08-24T08:28:36;8.20;;;4.20;;
9106;SDS011;4589;48.690;8.952;2023-08-24T08:31:01;6.37;;;4.63;;
9106;SDS011;4589;48.690;8.952;2023-08-24T08:33:28;9.87;;;5.57;;
9106;SDS011;4589;48.690;8.952;2023-08-24T08:35:55;8.23;;;4.63;;
9106;SDS011;4589;48.690;8.952;2023-08-24T08:38:21;6.00;;;4.80;;
9106;SDS011;4589;48.690;8.952;2023-08-24T08:40:50;6.97;;;5.00;;
9106;SDS011;4589;48.690;8.952;2023-08-24T08:43:18;4.80;;;4.40;;
9106;SDS011;4589;48.690;8.952;2023-08-24T08:45:46;7.43;;;4.90;;
9106;SDS011;4589;48.690;8.952;2023-08-24T08:48:12;6.83;;;4.60;;
9106;SDS011;4589;48.690;8.952;2023-08-24T08:50:37;8.30;;;4.77;;
9106;SDS011;4589;48.690;8.952;2023-08-24T08:53:03;6.33;;;4.90;;
9106;SDS011;4589;48.690;8.952;2023-08-24T08:55:29;6.50;;;4.50;;
9106;SDS011;4589;48.690;8.952;2023-08-24T08:57:56;4.70;;;4.30;;
9106;SDS011;4589;48.690;8.952;2023-08-24T09:00:23;4.47;;;4.07;;
9106;SDS011;4589;48.690;8.952;2023-08-24T09:02:49;8.00;;;4.10;;
9106;SDS011;4589;48.690;8.952;2023-08-24T09:05:17;5.23;;;4.73;;
9106;SDS011;4589;48.690;8.952;2023-08-24T09:07:42;4.67;;;4.20;;
9106;SDS011;4589;48.690;8.952;2023-08-24T09:10:09;6.00;;;3.90;;
9106;SDS011;4589;48.690;8.952;2023-08-24T09:12:34;4.20;;;3.90;;
9106;SDS011;4589;48.690;8.952;2023-08-24T09:15:06;9.27;;;3.60;;
9106;SDS011;4589;48.690;8.952;2023-08-24T09:17:33;5.67;;;4.87;;
9106;SDS011;4589;48.690;8.952;2023-08-24T09:19:59;4.27;;;3.87;;
9106;SDS011;4589;48.690;8.952;2023-08-24T09:22:34;4.60;;;3.90;;
9106;SDS011;4589;48.690;8.952;2023-08-24T09:25:06;4.73;;;4.13;;
9106;SDS011;4589;48.690;8.952;2023-08-24T09:27:34;5.47;;;4.23;;
9106;SDS011;4589;48.690;8.952;2023-08-24T09:30:00;7.30;;;4.67;;
9106;SDS011;4589;48.690;8.952;2023-08-24T09:32:30;6.03;;;4.10;;
9106;SDS011;4589;48.690;8.952;2023-08-24T09:35:03;5.80;;;4.17;;
9106;SDS011;4589;48.690;8.952;2023-08-24T09:37:33;4.00;;;3.70;;
9106;SDS011;4589;48.690;8.952;2023-08-24T09:40:07;4.93;;;4.27;;
9106;SDS011;4589;48.690;8.952;2023-08-24T09:42:40;5.03;;;4.00;;
9106;SDS011;4589;48.690;8.952;2023-08-24T09:45:12;5.07;;;4.57;;
9106;SDS011;4589;48.690;8.952;2023-08-24T09:47:39;7.10;;;4.80;;
9106;SDS011;4589;48.690;8.952;2023-08-24T09:50:09;5.47;;;4.40;;
9106;SDS011;4589;48.690;8.952;2023-08-24T09:52:35;6.50;;;4.23;;
9106;SDS011;4589;48.690;8.952;2023-08-24T09:55:03;6.87;;;4.17;;
9106;SDS011;4589;48.690;8.952;2023-08-24T09:57:42;5.73;;;5.13;;
9106;SDS011;4589;48.690;8.952;2023-08-24T10:00:09;5.03;;;4.50;;
9106;SDS011;4589;48.690;8.952;2023-08-24T10:02:51;5.73;;;5.00;;
9106;SDS011;4589;48.690;8.952;2023-08-24T10:05:23;6.70;;;4.90;;
9106;SDS011;4589;48.690;8.952;2023-08-24T10:07:51;5.53;;;4.60;;
9106;SDS011;4589;48.690;8.952;2023-08-24T10:10:22;6.83;;;4.90;;
9106;SDS011;4589;48.690;8.952;2023-08-24T10:12:50;8.50;;;5.07;;
9106;SDS011;4589;48.690;8.952;2023-08-24T10:15:21;5.60;;;4.97;;
9106;SDS011;4589;48.690;8.952;2023-08-24T10:17:48;5.37;;;4.60;;
9106;SDS011;4589;48.690;8.952;2023-08-24T10:20:15;7.60;;;4.60;;
9106;SDS011;4589;48.690;8.952;2023-08-24T10:22:46;4.50;;;4.10;;
9106;SDS011;4589;48.690;8.952;2023-08-24T10:25:12;4.93;;;4.53;;
9106;SDS011;4589;48.690;8.952;2023-08-24T10:27:38;6.13;;;4.60;;
9106;SDS011;4589;48.690;8.952;2023-08-24T10:30:08;5.27;;;4.73;;
9106;SDS011;4589;48.690;8.952;2023-08-24T10:32:38;12.60;;;4.90;;
9106;SDS011;4589;48.690;8.952;2023-08-24T10:35:05;6.50;;;4.30;;
9106;SDS011;4589;48.690;8.952;2023-08-24T10:37:31;8.20;;;5.00;;
9106;SDS011;4589;48.690;8.952;2023-08-24T10:39:59;7.23;;;4.80;;
9106;SDS011;4589;48.690;8.952;2023-08-24T10:42:25;7.60;;;5.07;;
9106;SDS011;4589;48.690;8.952;2023-08-24T10:44:51;8.67;;;5.33;;
9106;SDS011;4589;48.690;8.952;2023-08-24T10:47:18;5.63;;;4.83;;
9106;SDS011;4589;48.690;8.952;2023-08-24T10:52:23;6.07;;;5.27;;
9106;SDS011;4589;48.690;8.952;2023-08-24T10:54:51;9.80;;;4.97;;
9106;SDS011;4589;48.690;8.952;2023-08-24T10:57:24;5.23;;;4.73;;
9106;SDS011;4589;48.690;8.952;2023-08-24T11:02:24;5.70;;;4.80;;
9106;SDS011;4589;48.690;8.952;2023-08-24T11:07:58;5.23;;;4.73;;
9106;SDS011;4589;48.690;8.952;2023-08-24T11:10:26;5.50;;;5.00;;
9106;SDS011;4589;48.690;8.952;2023-08-24T11:13:10;12.13;;;5.00;;
9106;SDS011;4589;48.690;8.952;2023-08-24T11:15:41;7.30;;;4.77;;
9106;SDS011;4589;48.690;8.952;2023-08-24T11:18:27;6.70;;;5.43;;
9106;SDS011;4589;48.690;8.952;2023-08-24T11:20:54;9.30;;;4.73;;
9106;SDS011;4589;48.690;8.952;2023-08-24T11:23:22;6.63;;;4.70;;
9106;SDS011;4589;48.690;8.952;2023-08-24T11:25:51;5.93;;;4.93;;
9106;SDS011;4589;48.690;8.952;2023-08-24T11:28:21;9.30;;;5.73;;
9106;SDS011;4589;48.690;8.952;2023-08-24T11:30:48;7.07;;;5.23;;
9106;SDS011;4589;48.690;8.952;2023-08-24T11:33:15;7.83;;;5.53;;
9106;SDS011;4589;48.690;8.952;2023-08-24T11:35:43;13.40;;;5.53;;
9106;SDS011;4589;48.690;8.952;2023-08-24T11:38:10;5.00;;;4.60;;
9106;SDS011;4589;48.690;8.952;2023-08-24T11:40:36;7.70;;;5.17;;
9106;SDS011;4589;48.690;8.952;2023-08-24T11:43:02;7.00;;;5.30;;
9106;SDS011;4589;48.690;8.952;2023-08-24T11:45:29;8.10;;;5.30;;
9106;SDS011;4589;48.690;8.952;2023-08-24T11:47:57;7.87;;;5.10;;
9106;SDS011;4589;48.690;8.952;2023-08-24T11:50:25;8.07;;;4.93;;
9106;SDS011;4589;48.690;8.952;2023-08-24T11:52:52;6.60;;;5.20;;
9106;SDS011;4589;48.690;8.952;2023-08-24T11:55:18;9.33;;;5.03;;
9106;SDS011;4589;48.690;8.952;2023-08-24T11:57:43;12.27;;;5.73;;
9106;SDS011;4589;48.690;8.952;2023-08-24T12:00:09;8.23;;;5.77;;
9106;SDS011;4589;48.690;8.952;2023-08-24T12:02:38;7.03;;;6.03;;
9106;SDS011;4589;48.690;8.952;2023-08-24T12:05:11;7.17;;;5.47;;
9106;SDS011;4589;48.690;8.952;2023-08-24T12:07:52;7.70;;;6.20;;
9106;SDS011;4589;48.690;8.952;2023-08-24T12:10:19;8.37;;;5.87;;
9106;SDS011;4589;48.690;8.952;2023-08-24T12:12:45;6.37;;;5.40;;
9106;SDS011;4589;48.690;8.952;2023-08-24T12:15:14;8.50;;;5.40;;
9106;SDS011;4589;48.690;8.952;2023-08-24T12:17:45;12.70;;;5.50;;
9106;SDS011;4589;48.690;8.952;2023-08-24T12:20:18;9.77;;;5.73;;
9106;SDS011;4589;48.690;8.952;2023-08-24T12:22:54;6.67;;;5.97;;
9106;SDS011;4589;48.690;8.952;2023-08-24T12:25:23;6.63;;;5.20;;
9106;SDS011;4589;48.690;8.952;2023-08-24T12:27:53;6.63;;;5.83;;
9106;SDS011;4589;48.690;8.952;2023-08-24T12:30:42;6.17;;;4.73;;
9106;SDS011;4589;48.690;8.952;2023-08-24T12:33:24;6.83;;;5.70;;
9106;SDS011;4589;48.690;8.952;2023-08-24T12:35:52;5.70;;;5.10;;
9106;SDS011;4589;48.690;8.952;2023-08-24T12:38:18;7.47;;;5.77;;
9106;SDS011;4589;48.690;8.952;2023-08-24T12:40:44;6.23;;;4.97;;
9106;SDS011;4589;48.690;8.952;2023-08-24T12:43:09;7.90;;;5.30;;
9106;SDS011;4589;48.690;8.952;2023-08-24T12:45:35;7.30;;;5.60;;
9106;SDS011;4589;48.690;8.952;2023-08-24T12:48:02;7.57;;;4.90;;
9106;SDS011;4589;48.690;8.952;2023-08-24T12:50:29;12.00;;;5.17;;
9106;SDS011;4589;48.690;8.952;2023-08-24T12:52:54;14.73;;;5.60;;
9106;SDS011;4589;48.690;8.952;2023-08-24T12:55:24;13.53;;;5.37;;
9106;SDS011;4589;48.690;8.952;2023-08-24T12:57:50;5.70;;;4.77;;
9106;SDS011;4589;48.690;8.952;2023-08-24T13:00:15;6.30;;;5.03;;
9106;SDS011;4589;48.690;8.952;2023-08-24T13:02:41;7.30;;;4.90;;
9106;SDS011;4589;48.690;8.952;2023-08-24T13:05:07;6.73;;;4.77;;
9106;SDS011;4589;48.690;8.952;2023-08-24T13:07:33;4.97;;;4.50;;
9106;SDS011;4589;48.690;8.952;2023-08-24T13:09:58;18.03;;;5.30;;
9106;SDS011;4589;48.690;8.952;2023-08-24T13:12:24;8.13;;;4.83;;
9106;SDS011;4589;48.690;8.952;2023-08-24T13:14:50;7.40;;;4.40;;
9106;SDS011;4589;48.690;8.952;2023-08-24T13:17:15;6.83;;;4.87;;
9106;SDS011;4589;48.690;8.952;2023-08-24T13:19:41;10.13;;;4.50;;
9106;SDS011;4589;48.690;8.952;2023-08-24T13:22:07;14.77;;;4.90;;
9106;SDS011;4589;48.690;8.952;2023-08-24T13:24:35;8.90;;;4.90;;
9106;SDS011;4589;48.690;8.952;2023-08-24T13:27:00;13.47;;;4.93;;
9106;SDS011;4589;48.690;8.952;2023-08-24T13:29:27;10.07;;;4.57;;
9106;SDS011;4589;48.690;8.952;2023-08-24T13:31:53;6.40;;;4.77;;
9106;SDS011;4589;48.690;8.952;2023-08-24T13:34:19;10.00;;;5.20;;
9106;SDS011;4589;48.690;8.952;2023-08-24T13:36:45;8.70;;;5.00;;
9106;SDS011;4589;48.690;8.952;2023-08-24T13:39:11;11.70;;;5.43;;
9106;SDS011;4589;48.690;8.952;2023-08-24T13:41:37;9.53;;;4.90;;
9106;SDS011;4589;48.690;8.952;2023-08-24T13:44:02;9.47;;;5.10;;
9106;SDS011;4589;48.690;8.952;2023-08-24T13:46:28;12.43;;;6.33;;
9106;SDS011;4589;48.690;8.952;2023-08-24T13:48:54;10.27;;;5.40;;
9106;SDS011;4589;48.690;8.952;2023-08-24T13:51:19;9.70;;;5.00;;
9106;SDS011;4589;48.690;8.952;2023-08-24T13:53:45;8.00;;;5.70;;
9106;SDS011;4589;48.690;8.952;2023-08-24T13:56:12;8.60;;;4.83;;
9106;SDS011;4589;48.690;8.952;2023-08-24T13:58:37;12.97;;;5.00;;
9106;SDS011;4589;48.690;8.952;2023-08-24T14:01:03;7.83;;;5.30;;
9106;SDS011;4589;48.690;8.952;2023-08-24T14:03:28;7.60;;;5.27;;
9106;SDS011;4589;48.690;8.952;2023-08-24T14:05:55;10.23;;;5.13;;
9106;SDS011;4589;48.690;8.952;2023-08-24T14:08:21;8.03;;;5.20;;
9106;SDS011;4589;48.690;8.952;2023-08-24T14:10:47;8.60;;;5.80;;
9106;SDS011;4589;48.690;8.952;2023-08-24T14:13:13;8.97;;;5.40;;
9106;SDS011;4589;48.690;8.952;2023-08-24T14:15:40;7.07;;;5.60;;
9106;SDS011;4589;48.690;8.952;2023-08-24T14:18:05;6.80;;;4.57;;
9106;SDS011;4589;48.690;8.952;2023-08-24T14:20:31;5.60;;;4.77;;
9106;SDS011;4589;48.690;8.952;2023-08-24T14:22:56;8.10;;;5.47;;
9106;SDS011;4589;48.690;8.952;2023-08-24T14:25:22;8.17;;;5.70;;
9106;SDS011;4589;48.690;8.952;2023-08-24T14:27:48;7.93;;;5.67;;
9106;SDS011;4589;48.690;8.952;2023-08-24T14:30:13;8.20;;;5.03;;
9106;SDS011;4589;48.690;8.952;2023-08-24T14:32:39;15.40;;;5.90;;
9106;SDS011;4589;48.690;8.952;2023-08-24T14:35:05;7.77;;;5.10;;
9106;SDS011;4589;48.690;8.952;2023-08-24T14:37:32;8.60;;;5.20;;
9106;SDS011;4589;48.690;8.952;2023-08-24T14:39:58;9.90;;;5.97;;
9106;SDS011;4589;48.690;8.952;2023-08-24T14:42:24;9.13;;;5.43;;
9106;SDS011;4589;48.690;8.952;2023-08-24T14:44:50;6.57;;;5.23;;
9106;SDS011;4589;48.690;8.952;2023-08-24T14:47:16;6.43;;;5.30;;
9106;SDS011;4589;48.690;8.952;2023-08-24T14:49:42;22.53;;;6.00;;
9106;SDS011;4589;48.690;8.952;2023-08-24T14:52:07;9.50;;;5.53;;
9106;SDS011;4589;48.690;8.952;2023-08-24T14:54:33;10.40;;;5.73;;
9106;SDS011;4589;48.690;8.952;2023-08-24T14:56:58;7.10;;;6.40;;
9106;SDS011;4589;48.690;8.952;2023-08-24T14:59:25;7.73;;;7.00;;
9106;SDS011;4589;48.690;8.952;2023-08-24T15:01:50;7.90;;;7.10;;
9106;SDS011;4589;48.690;8.952;2023-08-24T15:04:17;9.40;;;6.60;;
9106;SDS011;4589;48.690;8.952;2023-08-24T15:06:43;6.93;;;6.33;;
9106;SDS011;4589;48.690;8.952;2023-08-24T15:09:09;9.97;;;6.77;;
9106;SDS011;4589;48.690;8.952;2023-08-24T15:11:34;9.53;;;6.97;;
9106;SDS011;4589;48.690;8.952;2023-08-24T15:14:00;7.33;;;6.60;;
9106;SDS011;4589;48.690;8.952;2023-08-24T15:16:26;11.13;;;7.70;;